createdAt,value
2023-02-08T00:00:35.441Z,9.2
2023-02-08T00:06:10.538Z,9.2
2023-02-08T00:11:45.908Z,9.2
2023-02-08T00:17:21.073Z,9.1
2023-02-08T00:22:56.519Z,9
2023-02-08T00:28:36.631Z,8.9
2023-02-08T00:34:17.449Z,8.8
2023-02-08T00:39:52.894Z,8.7
2023-02-08T00:45:27.953Z,8.5
2023-02-08T00:51:04.461Z,8.4
2023-02-08T00:56:39.469Z,8.3
2023-02-08T01:02:15.354Z,8.3
2023-02-08T01:07:51.779Z,8.2
2023-02-08T01:13:27.524Z,8.2
2023-02-08T01:19:03.612Z,8.1
2023-02-08T01:24:38.836Z,8
2023-02-08T01:30:13.704Z,8
2023-02-08T01:35:48.439Z,7.9
2023-02-08T01:41:23.450Z,7.9
2023-02-08T01:47:20.762Z,7.8
2023-02-08T01:52:54.878Z,7.7
2023-02-08T01:58:29.744Z,7.6
2023-02-08T02:04:05.585Z,7.6
2023-02-08T02:09:55.101Z,7.5
2023-02-08T02:15:43.421Z,7.5
2023-02-08T02:21:20.126Z,7.4
2023-02-08T02:26:57.518Z,7.4
2023-02-08T02:32:32.507Z,7.3
2023-02-08T02:38:07.456Z,7.3
2023-02-08T02:43:42.811Z,7.2
2023-02-08T02:49:39.789Z,7.2
2023-02-08T02:55:12.521Z,7.1
2023-02-08T03:00:49.276Z,7.1
2023-02-08T03:06:25.308Z,7
2023-02-08T03:12:00.657Z,6.9
2023-02-08T03:17:35.819Z,6.9
2023-02-08T03:23:12.532Z,6.9
2023-02-08T03:29:08.866Z,6.8
2023-02-08T03:34:43.852Z,6.8
2023-02-08T03:40:18.975Z,6.7
2023-02-08T03:45:54.407Z,6.7
2023-02-08T03:51:29.928Z,6.7
2023-02-08T03:57:05.180Z,6.6
2023-02-08T04:02:40.418Z,6.6
2023-02-08T04:08:36.558Z,6.5
2023-02-08T04:14:11.587Z,6.5
2023-02-08T04:19:47.794Z,6.5
2023-02-08T04:25:24.263Z,6.4
2023-02-08T04:30:59.731Z,6.4
2023-02-08T04:36:36.855Z,6.4
2023-02-08T04:42:12.206Z,6.3
2023-02-08T04:48:10.031Z,6.3
2023-02-08T04:53:45.034Z,6.3
2023-02-08T04:59:20.166Z,6.3
2023-02-08T05:04:55.069Z,6.3
2023-02-08T05:10:30.735Z,6.4
2023-02-08T05:16:05.744Z,6.3
2023-02-08T05:21:41.805Z,6.2
2023-02-08T05:27:16.633Z,6.1
2023-02-08T05:32:51.406Z,6.1
2023-02-08T05:38:27.198Z,6.1
2023-02-08T05:44:03.603Z,6.1
2023-02-08T05:50:01.254Z,6.1
2023-02-08T05:55:35.504Z,6
2023-02-08T06:01:10.402Z,6
2023-02-08T06:06:45.192Z,5.9
2023-02-08T06:12:23.076Z,5.9
2023-02-08T06:17:59.253Z,5.8
2023-02-08T06:23:34.635Z,5.8
2023-02-08T06:29:10.193Z,5.7
2023-02-08T06:34:45.441Z,5.7
2023-02-08T06:40:21.903Z,5.6
2023-02-08T06:45:57.518Z,5.6
2023-02-08T06:51:33.428Z,5.6
2023-02-08T06:57:08.562Z,5.6
2023-02-08T07:02:43.406Z,3.9
2023-02-08T07:08:29.157Z,3.5
2023-02-08T07:14:04.244Z,3.2
2023-02-08T07:19:48.270Z,2.9
2023-02-08T07:25:24.707Z,2.7
2023-02-08T07:31:07.784Z,2.7
2023-02-08T07:36:52.182Z,2.7
2023-02-08T07:42:27.930Z,2.7
2023-02-08T07:48:34.493Z,3
2023-02-08T07:54:07.895Z,2.8
2023-02-08T07:59:44.381Z,2.6
2023-02-08T08:05:29.910Z,3
2023-02-08T08:11:05.376Z,3.2
2023-02-08T08:16:43.201Z,3.2
2023-02-08T08:22:35.475Z,3.8
2023-02-08T08:28:16.952Z,4.5
2023-02-08T08:33:54.407Z,4.6
2023-02-08T08:39:33.016Z,4.4
2023-02-08T08:45:08.667Z,4.5
2023-02-08T08:50:45.500Z,4.8
2023-02-08T08:56:37.918Z,5.1
2023-02-08T09:02:13.142Z,5.6
2023-02-08T09:07:50.145Z,5.9
2023-02-08T09:13:28.422Z,6
2023-02-08T09:19:05.398Z,6.2
2023-02-08T09:24:43.159Z,6.6
2023-02-08T09:30:18.366Z,7.2
2023-02-08T09:35:54.564Z,6.9
2023-02-08T09:41:29.559Z,6.8
2023-02-08T09:47:05.029Z,6.8
2023-02-08T09:53:08.270Z,7.1
2023-02-08T09:58:43.709Z,7.3
2023-02-08T10:04:18.820Z,7.4
2023-02-08T10:10:16.065Z,7.7
2023-02-08T10:15:51.880Z,7.9
2023-02-08T10:21:26.786Z,8
2023-02-08T10:27:02.624Z,8.2
2023-02-08T10:32:46.131Z,8.4
2023-02-08T10:38:21.370Z,8.4
2023-02-08T10:44:19.692Z,8.6
2023-02-08T10:50:02.563Z,8.8
2023-02-08T10:55:43.558Z,8.9
2023-02-08T11:01:23.654Z,8.8
2023-02-08T11:06:59.704Z,9
2023-02-08T11:12:34.765Z,9
2023-02-08T11:18:10.524Z,9.2
2023-02-08T11:23:45.478Z,9.5
2023-02-08T11:29:21.453Z,9.7
2023-02-08T11:34:56.598Z,9.6
2023-02-08T11:40:32.132Z,9.6
2023-02-08T11:46:33.749Z,9.8
2023-02-08T11:52:13.579Z,10
2023-02-08T11:57:59.489Z,10.4
2023-02-08T12:03:35.180Z,10.5
2023-02-08T12:09:17.487Z,10.5
2023-02-08T12:14:53.170Z,10.6
2023-02-08T12:20:28.514Z,10.9
2023-02-08T12:26:04.509Z,10.8
2023-02-08T12:31:40.025Z,10.7
2023-02-08T12:37:17.617Z,10.9
2023-02-08T12:42:53.153Z,11.7
2023-02-08T12:48:49.960Z,12.4
2023-02-08T12:54:22.652Z,12
2023-02-08T12:59:58.040Z,12.3
2023-02-08T13:05:33.632Z,12.5
2023-02-08T13:11:20.591Z,12.8
2023-02-08T13:17:00.279Z,13.1
2023-02-08T13:22:36.216Z,13.4
2023-02-08T13:28:23.839Z,13.4
2023-02-08T13:34:11.049Z,13.4
2023-02-08T13:39:46.255Z,13.6
2023-02-08T13:45:28.449Z,14.4
2023-02-08T13:51:10.719Z,14.9
2023-02-08T13:58:28.356Z,15.7
2023-02-08T14:04:05.057Z,16.3
2023-02-08T14:09:40.456Z,17.2
2023-02-08T14:15:16.293Z,17.8
2023-02-08T14:20:54.233Z,18.3
2023-02-08T14:26:32.639Z,19.5
2023-02-08T14:32:08.204Z,20.4
2023-02-08T14:37:47.211Z,21.2
2023-02-08T14:43:38.478Z,22.1
2023-02-08T14:49:46.574Z,21.5
2023-02-08T14:55:19.975Z,23.3
2023-02-08T15:00:55.256Z,22.7
2023-02-08T15:06:31.818Z,23.2
2023-02-08T15:12:07.100Z,23.3
2023-02-08T15:17:43.674Z,22.3
2023-02-08T15:23:27.617Z,22
2023-02-08T15:29:09.274Z,19.5
2023-02-08T15:34:44.688Z,16
2023-02-08T15:40:22.760Z,15
2023-02-08T15:45:58.201Z,14.2
2023-02-08T15:51:35.343Z,13.9
2023-02-08T15:57:11.242Z,13.4
2023-02-08T16:02:46.111Z,13.2
2023-02-08T16:08:21.941Z,12.8
2023-02-08T16:13:57.479Z,12.4
2023-02-08T16:19:35.960Z,12.1
2023-02-08T16:25:12.647Z,11.7
2023-02-08T16:30:54.113Z,11.4
2023-02-08T16:36:30.775Z,11.1
2023-02-08T16:42:15.664Z,11
2023-02-08T16:48:18.777Z,11.1
2023-02-08T16:53:52.046Z,10.7
2023-02-08T16:59:27.425Z,10.6
2023-02-08T17:05:02.878Z,10.4
2023-02-08T17:10:39.306Z,10.1
2023-02-08T17:16:23.010Z,9.9
2023-02-08T17:21:58.664Z,9.8
2023-02-08T17:27:36.785Z,9.6
2023-02-08T17:34:14.347Z,9.3
2023-02-08T17:39:49.650Z,9.2
2023-02-08T17:45:33.237Z,9.3
2023-02-08T17:51:37.292Z,10.5
2023-02-08T17:57:20.537Z,10.8
2023-02-08T18:03:14.893Z,11
2023-02-08T18:09:01.103Z,11.1
2023-02-08T18:15:01.250Z,11.3
2023-02-08T18:20:36.574Z,11.4
2023-02-08T18:26:16.288Z,11.4
2023-02-08T18:31:51.647Z,11.5
2023-02-08T18:37:29.213Z,11.4
2023-02-08T18:43:12.389Z,11.3
2023-02-08T18:49:12.039Z,11.3
2023-02-08T18:54:46.253Z,11.2
2023-02-08T19:00:30.592Z,11.1
2023-02-08T19:06:17.024Z,11.1
2023-02-08T19:12:14.873Z,11.1
2023-02-08T19:17:50.818Z,11.1
2023-02-08T19:23:25.873Z,11.1
2023-02-08T19:29:16.631Z,11.1
2023-02-08T19:34:51.999Z,11.1
2023-02-08T19:40:36.101Z,11.1
2023-02-08T19:46:11.513Z,11
2023-02-08T19:51:47.394Z,11
2023-02-08T19:57:31.098Z,10.9
2023-02-08T20:03:21.346Z,10.7
2023-02-08T20:08:58.008Z,10.6
2023-02-08T20:14:33.927Z,10.4
2023-02-08T20:20:12.312Z,10.4
2023-02-08T20:25:47.990Z,10.2
2023-02-08T20:31:25.974Z,10.2
2023-02-08T20:37:14.791Z,10.1
2023-02-08T20:42:49.748Z,10.1
2023-02-08T20:48:51.682Z,10
2023-02-08T20:54:24.908Z,9.9
2023-02-08T21:00:11.425Z,9.8
2023-02-08T21:05:46.697Z,9.7
2023-02-08T21:11:22.063Z,9.7
2023-02-08T21:16:59.615Z,9.6
2023-02-08T21:22:36.278Z,9.5
2023-02-08T21:28:20.852Z,9.4
2023-02-08T21:33:58.031Z,9.3
2023-02-08T21:39:40.792Z,9.3
2023-02-08T21:45:22.546Z,9.2
2023-02-08T21:51:09.058Z,9.1
2023-02-08T21:56:47.856Z,9
2023-02-08T22:02:43.799Z,9
2023-02-08T22:08:30.327Z,8.9
2023-02-08T22:14:13.929Z,8.8
2023-02-08T22:19:49.226Z,8.8
2023-02-08T22:25:24.540Z,8.7
2023-02-08T22:30:59.719Z,8.6
2023-02-08T22:36:46.043Z,8.5
2023-02-08T22:42:21.358Z,8.5
2023-02-08T22:48:20.237Z,8.4
2023-02-08T22:53:53.931Z,8.3
2023-02-08T22:59:40.105Z,8.2
2023-02-08T23:05:16.582Z,8.3
2023-02-08T23:10:51.878Z,8.2
2023-02-08T23:16:26.890Z,8.2
2023-02-08T23:22:12.028Z,8.1
2023-02-08T23:28:06.064Z,8
2023-02-08T23:33:43.011Z,8
2023-02-08T23:39:21.920Z,7.9
2023-02-08T23:44:58.455Z,7.8
2023-02-08T23:50:41.691Z,7.8
2023-02-08T23:56:22.844Z,7.8
